Date,TemperatureHighF,TemperatureAvgF,TemperatureLowF,DewpointHighF,DewpointAvgF,DewpointLowF,HumidityHigh,HumidityAvg,HumidityLow,PressureMaxIn,PressureMinIn,WindSpeedMaxMPH,WindSpeedAvgMPH,GustSpeedMaxMPH,PrecipitationSumIn
2013-10-1,79,76,75,71,71,71,89,84,78,0.00,40.00,7,5,0,0.00
2013-10-2,88,78,71,74,71,69,95,79,57,0.00,40.00,11,7,0,0.00
2013-10-3,89,79,70,73,70,69,95,77,54,0.00,40.00,9,5,0,0.00
2013-10-4,88,79,71,76,71,68,95,78,52,0.00,40.00,9,5,0,0.00
2013-10-5,89,78,69,75,70,67,95,78,51,0.00,40.00,10,6,0,0.00
2013-10-6,90,79,71,77,71,66,96,79,45,0.00,40.00,11,5,0,0.00
2013-10-7,82,77,72,77,73,70,94,88,75,0.00,40.00,12,7,0,0.00
2013-10-8,88,78,73,76,72,69,95,83,54,0.00,40.00,12,7,0,0.09
2013-10-9,83,74,68,72,70,66,95,86,66,0.00,40.00,9,7,0,0.00
2013-10-10,85,74,66,70,67,65,95,80,55,0.00,40.00,9,6,0,0.00
2013-10-11,85,72,62,71,64,60,95,79,47,0.00,40.00,5,3,0,0.00
2013-10-12,86,74,64,69,64,61,95,73,44,0.00,40.00,8,4,0,0.00
2013-10-13,85,74,66,68,62,-100,94,71,41,0.00,40.00,8,5,0,0.00
2013-10-14,86,75,67,70,66,63,93,76,48,0.00,40.00,9,6,0,0.00
2013-10-15,82,72,67,72,68,65,96,86,65,0.00,40.00,8,5,0,0.00
2013-10-16,86,75,69,74,69,67,96,82,53,0.00,40.00,8,4,0,0.00
2013-10-17,89,77,66,75,69,65,96,78,50,0.00,40.00,8,3,0,0.00
2013-10-18,89,78,68,75,70,66,96,78,48,0.00,40.00,8,4,0,0.00
2013-10-19,91,80,72,74,71,68,94,75,48,0.00,40.00,9,5,0,0.00
2013-10-20,90,78,73,77,71,-100,95,82,57,0.00,40.00,11,4,0,0.60
2013-10-21,90,79,73,78,73,71,96,83,54,0.00,40.00,7,4,0,0.00
2013-10-22,89,78,71,75,72,69,95,85,60,0.00,40.00,11,6,0,0.00
2013-10-23,80,73,67,71,66,56,96,79,48,0.00,40.00,11,6,0,0.00
2013-10-27,79,66,59,61,54,-100,93,71,41,0.00,40.00,9,6,0,0.00
2013-10-28,83,68,60,65,57,-100,90,73,43,0.00,40.00,8,6,0,0.00
2013-10-29,84,73,64,67,63,61,90,74,45,0.00,40.00,14,8,0,0.00
2013-10-30,84,73,66,69,66,63,94,79,52,0.00,40.00,12,6,0,0.00
2013-10-31,87,74,65,71,66,63,95,77,45,0.00,40.00,12,6,0,0.00